Costa Favolosa — ICPK — position and weather

sailwx.info

Track history (hours):
 
Tides and Currents Weather Stations Pressure Air Temp Water Temp Dewpoint Dewpoint Depression Visibility Wind Speed Wind Dir Waves Ship Positions

Costa Favolosa

Last reported at 2017-Jun-23 20:31 UTC. Time now 2017-Jun-23 20:28 UTC.
Position N 54°52' E 010°53'.

Length 291 m; draft 8.3 m.

Type: Ship. MMSI: 247311100.

Date/timePositionNaut miles runAvg speedWind from/ knotsBaromVisibWave heightAir tempDewpointWater temp
2017-Jun-23 20:31N 54°52' E 010°53'918.8
2017-Jun-23 20:01N 54°42' E 010°54'1019.1
2017-Jun-23 19:31N 54°38' E 011°08'1019.7
2017-Jun-23 19:00N 54°33' E 011°24'1019.0
2017-Jun-23 18:30N 54°29' E 011°38'1818.6
2017-Jun-23 17:33N 54°18' E 012°02'613.2
2017-Jun-23 17:08N 54°13' E 012°05'111.7
2017-Jun-23 17:00N 54°11' E 012°05'2 0.1
2017-Jun-23 04:46N 54°10' E 012°06'1 4.8
2017-Jun-23 04:30N 54°11' E 012°06'1910.2
2017-Jun-23 02:38N 54°25' E 011°44'213.3
2017-Jun-23 02:29N 54°26' E 011°41'613.2
2017-Jun-23 02:00N 54°29' E 011°31'612.4
2017-Jun-23 01:30N 54°32' E 011°22'612.2
2017-Jun-23 01:00N 54°34' E 011°12'612.2
2017-Jun-23 00:30N 54°35' E 011°02'612.2
2017-Jun-23 00:00N 54°38' E 010°52'612.0
2017-Jun-22 23:30N 54°43' E 010°47'816.5
2017-Jun-22 23:00N 54°51' E 010°50'815.4
2017-Jun-22 22:30N 54°58' E 010°56'714.4
2017-Jun-22 22:00N 55°05' E 010°59'714.6
2017-Jun-22 21:30N 55°11' E 011°04'713.9
2017-Jun-22 20:59N 55°18' E 011°02'5712.5
2017-Jun-22 16:26N 56°09' E 010°16'2 0.7
2017-Jun-22 14:00N 56°09' E 010°13'0 0.0
2017-Jun-22 13:22N 56°09' E 010°13'0 0.0
2017-Jun-22 12:21N 56°09' E 010°13'0 0.0
2017-Jun-22 11:54N 56°09' E 010°13'0 0.0
2017-Jun-22 10:20N 56°09' E 010°13'0 0.0
2017-Jun-22 09:53N 56°09' E 010°13'0 0.0
2017-Jun-22 09:30N 56°09' E 010°13'0 0.0
2017-Jun-22 08:59N 56°09' E 010°13'0 0.0
2017-Jun-22 06:16N 56°09' E 010°13'1 1.5
2017-Jun-22 05:46N 56°10' E 010°14'1 3.0
2017-Jun-22 05:30N 56°09' E 010°15'4 8.7
2017-Jun-22 05:00N 56°07' E 010°22'1219.7
2017-Jun-22 04:22N 56°03' E 010°43'819.1
2017-Jun-22 03:57N 56°05' E 010°57'919.6
2017-Jun-22 03:30N 56°14' E 010°60'3219.0
2017-Jun-22 01:51N 56°38' E 011°36'1119.0
2017-Jun-22 01:15N 56°46' E 011°51'620.4
2017-Jun-22 00:58N 56°51' E 011°47'1020.5
2017-Jun-22 00:30N 57°00' E 011°41'1120.8
2017-Jun-22 00:00N 57°10' E 011°35'1020.7
2017-Jun-21 23:30N 57°19' E 011°28'1020.7
2017-Jun-21 23:00N 57°29' E 011°21'1020.7
2017-Jun-21 22:30N 57°36' E 011°07'1020.4
2017-Jun-21 22:00N 57°44' E 010°55'1121.0
2017-Jun-21 21:30N 57°49' E 010°37'1121.4
2017-Jun-21 21:00N 57°51' E 010°18'1121.7
2017-Jun-21 20:30N 57°52' E 009°58'1121.8
2017-Jun-21 20:01N 57°52' E 009°37'1121.9
2017-Jun-21 19:30N 57°52' E 009°17'1121.8
2017-Jun-21 19:00N 57°53' E 008°56'1121.6
2017-Jun-21 18:30N 57°56' E 008°37'1121.2
2017-Jun-21 18:00N 58°00' E 008°18'917.0
2017-Jun-21 17:30N 58°04' E 008°05'5 8.8
2017-Jun-21 16:58N 58°08' E 007°59'0 0.4
2017-Jun-21 16:28N 58°08' E 007°60'0 0.0
2017-Jun-21 15:58N 58°08' E 007°60'0 0.0
2017-Jun-21 15:28N 58°08' E 007°60'0 0.0
2017-Jun-21 14:58N 58°08' E 007°60'0 0.0
2017-Jun-21 14:28N 58°08' E 007°60'0 0.0
2017-Jun-21 11:39N 58°08' E 007°60'0 0.0
2017-Jun-21 11:00N 58°08' E 007°60'5 3.7
2017-Jun-21 09:45N 58°04' E 008°05'2 9.5
2017-Jun-21 09:30N 58°03' E 008°08'815.9
2017-Jun-21 09:01N 57°55' E 008°10'2915.9
2017-Jun-21 07:12N 57°42' E 007°22'620.2
2017-Jun-21 06:53N 57°43' E 007°10'820.2
2017-Jun-21 06:30N 57°43' E 006°56'1020.7
2017-Jun-21 06:01N 57°44' E 006°37'1020.2
2017-Jun-21 05:29N 57°50' E 006°20'918.0
2017-Jun-21 05:00N 57°55' E 006°07'918.4
2017-Jun-21 04:30N 58°00' E 005°53'1118.2
2017-Jun-21 03:53N 58°08' E 005°38'718.2
2017-Jun-21 03:29N 58°13' E 005°27'918.2
2017-Jun-21 03:00N 58°19' E 005°15'918.6
2017-Jun-21 02:30N 58°27' E 005°07'918.6
2017-Jun-21 02:01N 58°35' E 004°59'918.8
2017-Jun-21 01:31N 58°44' E 004°52'918.6
2017-Jun-21 01:00N 58°53' E 004°44'918.9
2017-Jun-21 00:30N 59°01' E 004°37'6718.2
2017-Jun-20 20:49N 60°08' E 004°30'618.3
2017-Jun-20 20:30N 60°14' E 004°31'918.2
2017-Jun-20 20:00N 60°23' E 004°32'918.2
2017-Jun-20 19:30N 60°32' E 004°31'917.6
2017-Jun-20 18:59N 60°41' E 004°31'714.9
2017-Jun-20 18:30N 60°44' E 004°44'713.8
2017-Jun-20 18:00N 60°39' E 004°53'918.3
2017-Jun-20 17:29N 60°30' E 004°59'714.2
2017-Jun-20 17:00N 60°24' E 005°07'5 9.0
2017-Jun-20 16:30N 60°24' E 005°16'1 2.9
2017-Jun-20 15:59N 60°24' E 005°19'0 0.0
2017-Jun-20 15:29N 60°24' E 005°19'0 0.0
2017-Jun-20 14:56N 60°24' E 005°19'0 0.0
2017-Jun-20 13:56N 60°24' E 005°19'0 0.0
2017-Jun-20 13:29N 60°24' E 005°19'0 0.0
2017-Jun-20 12:58N 60°24' E 005°19'0 0.0
2017-Jun-20 12:28N 60°24' E 005°19'0 0.0
2017-Jun-20 12:00N 60°24' E 005°19'0 0.0
2017-Jun-20 11:30N 60°24' E 005°19'0 0.0
2017-Jun-20 11:00N 60°24' E 005°19'0 0.0
2017-Jun-20 10:30N 60°24' E 005°19'0 0.0
2017-Jun-20 10:00N 60°24' E 005°19'0 0.0
2017-Jun-20 09:30N 60°24' E 005°19'0 0.0
2017-Jun-20 09:00N 60°24' E 005°19'0 0.0
2017-Jun-20 08:30N 60°24' E 005°19'0 0.0
2017-Jun-20 08:00N 60°24' E 005°19'0 0.0
2017-Jun-20 07:30N 60°24' E 005°19'0 0.0
2017-Jun-20 06:54N 60°24' E 005°19'0 0.0
2017-Jun-20 06:30N 60°24' E 005°19'0 0.0
2017-Jun-20 06:00N 60°24' E 005°19'0 0.0
2017-Jun-20 05:30N 60°24' E 005°19'2 4.2
2017-Jun-20 05:00N 60°24' E 005°15'5 9.7
2017-Jun-20 04:30N 60°25' E 005°05'815.7
2017-Jun-20 04:00N 60°31' E 004°57'917.4
2017-Jun-20 03:30N 60°40' E 004°51'713.9
2017-Jun-20 03:00N 60°44' E 004°41'816.4
2017-Jun-20 02:30N 60°49' E 004°27'1019.3
2017-Jun-20 02:00N 60°58' E 004°20'1019.3
2017-Jun-20 01:30N 61°08' E 004°17'1019.6
2017-Jun-20 01:00N 61°17' E 004°18'3519.9
2017-Jun-19 23:14N 61°52' E 004°32'520.0
2017-Jun-19 22:59N 61°56' E 004°37'1019.6
2017-Jun-19 22:29N 62°05' E 004°46'1019.9
2017-Jun-19 21:58N 62°15' E 004°56'919.3
2017-Jun-19 21:30N 62°21' E 005°09'1019.3
2017-Jun-19 21:00N 62°28' E 005°23'1018.6
2017-Jun-19 20:29N 62°30' E 005°43'817.2
2017-Jun-19 20:00N 62°27' E 005°59'813.7
2017-Jun-19 19:26N 62°23' E 006°14'818.5
2017-Jun-19 19:00N 62°25' E 006°31'1117.3
2017-Jun-19 18:22N 62°26' E 006°54'717.9
2017-Jun-19 18:00N 62°19' E 006°58'917.4
2017-Jun-19 17:30N 62°11' E 007°02'510.3
2017-Jun-19 17:00N 62°06' E 007°01'5 9.6
2017-Jun-19 16:30N 62°06' E 007°11'0 0.6
2017-Jun-19 15:58N 62°06' E 007°12'0 0.0
2017-Jun-19 15:30N 62°06' E 007°12'0 0.0
2017-Jun-19 15:00N 62°06' E 007°12'0 0.0
2017-Jun-19 14:00N 62°06' E 007°12'0 0.0
2017-Jun-19 13:28N 62°06' E 007°12'0 0.0
2017-Jun-19 12:58N 62°06' E 007°12'0 0.0
2017-Jun-19 12:28N 62°06' E 007°12'0 0.0
2017-Jun-19 11:58N 62°06' E 007°12'0 0.0
2017-Jun-19 11:28N 62°06' E 007°12'0 0.0
2017-Jun-19 10:58N 62°06' E 007°12'0 0.0
2017-Jun-19 10:28N 62°06' E 007°12'0 0.0
2017-Jun-19 09:58N 62°06' E 007°12'0 0.0
2017-Jun-19 09:28N 62°06' E 007°12'0 0.0
2017-Jun-19 09:00N 62°06' E 007°12'0 0.0
2017-Jun-19 08:30N 62°06' E 007°12'1 1.1
2017-Jun-19 08:00N 62°07' E 007°11'510.1
2017-Jun-19 07:30N 62°06' E 007°00'4 1.6
2017-Jun-19 05:09N 62°05' E 006°53'0 1.1
2017-Jun-19 04:56N 62°05' E 006°53'4 8.1
2017-Jun-19 04:30N 62°08' E 006°58'713.7
2017-Jun-19 04:00N 62°15' E 007°01'714.0
2017-Jun-19 03:30N 62°21' E 006°56'713.6
2017-Jun-19 02:58N 62°27' E 006°47'815.9
2017-Jun-19 02:30N 62°25' E 006°31'816.9
2017-Jun-19 02:00N 62°23' E 006°14'713.9
2017-Jun-19 01:30N 62°26' E 006°00'613.0
2017-Jun-19 01:00N 62°29' E 005°48'815.1
2017-Jun-19 00:30N 62°30' E 005°31'919.1
2017-Jun-19 00:00N 62°23' E 005°17'1019.2
2017-Jun-18 23:30N 62°18' E 004°60'1019.1
2017-Jun-18 23:00N 62°11' E 004°44'20417.8
2017-Jun-18 11:34N 58°48' E 004°35'619.4
2017-Jun-18 11:16N 58°44' E 004°43'519.3
2017-Jun-18 11:00N 58°40' E 004°50'1019.3
2017-Jun-18 10:30N 58°33' E 005°02'1019.0
2017-Jun-18 10:00N 58°26' E 005°15'918.8
2017-Jun-18 09:29N 58°19' E 005°27'918.9
2017-Jun-18 09:00N 58°13' E 005°41'1019.0
2017-Jun-18 08:30N 58°07' E 005°55'918.9
2017-Jun-18 08:00N 58°01' E 006°08'1019.1
2017-Jun-18 07:30N 57°54' E 006°22'919.1
2017-Jun-18 07:00N 57°48' E 006°36'1019.3
2017-Jun-18 06:29N 57°48' E 006°54'919.5
2017-Jun-18 06:00N 57°47' E 007°12'1019.9
2017-Jun-18 05:30N 57°47' E 007°30'1120.9
2017-Jun-18 05:00N 57°46' E 007°50'1020.3
2017-Jun-18 04:30N 57°47' E 008°09'1020.1
2017-Jun-18 04:00N 57°48' E 008°28'1020.0
2017-Jun-18 03:30N 57°49' E 008°46'1120.0
2017-Jun-18 02:59N 57°48' E 009°06'1019.9
2017-Jun-18 02:29N 57°50' E 009°25'920.0
2017-Jun-18 02:00N 57°50' E 009°43'1019.9
2017-Jun-18 01:30N 57°52' E 010°01'1019.6
2017-Jun-18 01:00N 57°51' E 010°20'918.4
2017-Jun-18 00:30N 57°50' E 010°37'816.7
2017-Jun-18 00:00N 57°47' E 010°51'917.4
2017-Jun-17 23:30N 57°42' E 011°04'917.6
2017-Jun-17 23:00N 57°35' E 011°16'918.2
2017-Jun-17 22:30N 57°29' E 011°27'918.3
2017-Jun-17 22:00N 57°20' E 011°32'918.4
2017-Jun-17 21:29N 57°11' E 011°38'918.7
2017-Jun-17 20:59N 57°02' E 011°43'918.2
2017-Jun-17 20:29N 56°54' E 011°49'917.9
2017-Jun-17 20:00N 56°46' E 011°55'917.8
2017-Jun-17 19:29N 56°37' E 011°58'917.9
2017-Jun-17 19:00N 56°28' E 012°01'917.8
2017-Jun-17 18:30N 56°20' E 012°06'917.1
2017-Jun-17 18:00N 56°13' E 012°16'918.0
2017-Jun-17 17:30N 56°08' E 012°29'816.3
2017-Jun-17 17:00N 56°02' E 012°40'816.8
2017-Jun-17 16:30N 55°54' E 012°44'816.6
2017-Jun-17 16:00N 55°46' E 012°42'4 8.2
2017-Jun-17 15:29N 55°43' E 012°38'0 0.0
2017-Jun-17 14:59N 55°43' E 012°38'0 0.0
2017-Jun-17 14:29N 55°43' E 012°38'0 0.0
2017-Jun-17 13:28N 55°43' E 012°38'0 0.0
2017-Jun-17 12:58N 55°43' E 012°38'0 0.0
2017-Jun-17 12:28N 55°43' E 012°38'0 0.0
2017-Jun-17 11:58N 55°43' E 012°38'0 0.0
2017-Jun-17 11:28N 55°43' E 012°38'0 0.0
2017-Jun-17 10:58N 55°43' E 012°38'0 0.0
2017-Jun-17 10:28N 55°43' E 012°38'0 0.0
2017-Jun-17 10:00N 55°43' E 012°38'0 0.0
2017-Jun-17 09:30N 55°43' E 012°38'0 0.0
2017-Jun-17 09:00N 55°43' E 012°38'0 0.0
2017-Jun-17 08:28N 55°43' E 012°38'0 0.0
2017-Jun-17 08:00N 55°43' E 012°38'0 0.0
2017-Jun-17 07:31N 55°43' E 012°38'0 0.0
2017-Jun-17 07:01N 55°43' E 012°38'0 0.0
2017-Jun-17 06:31N 55°43' E 012°38'0 0.3
2017-Jun-17 06:01N 55°43' E 012°38'4 7.2
2017-Jun-17 05:31N 55°46' E 012°41'815.7
2017-Jun-17 05:00N 55°53' E 012°39'917.9
2017-Jun-17 04:30N 56°02' E 012°39'918.9
2017-Jun-17 04:00N 56°09' E 012°27'1020.6
2017-Jun-17 03:30N 56°12' E 012°09'1020.9
2017-Jun-17 03:00N 56°09' E 011°51'5814.6
2017-Jun-16 23:03N 55°18' E 011°03'119.0
2017-Jun-16 23:00N 55°17' E 011°04'916.1
2017-Jun-16 22:25N 55°08' E 010°59'819.3
2017-Jun-16 22:00N 55°00' E 010°59'918.8
2017-Jun-16 21:30N 54°52' E 010°50'918.2
2017-Jun-16 21:00N 54°44' E 010°46'816.5
2017-Jun-16 20:30N 54°37' E 010°56'917.9
2017-Jun-16 20:00N 54°36' E 011°11'918.4
2017-Jun-16 19:30N 54°32' E 011°25'1018.2
2017-Jun-16 18:59N 54°28' E 011°40'917.6
2017-Jun-16 18:28N 54°22' E 011°53'14 1.0
2017-Jun-16 03:30N 54°10' E 012°06'0 0.7
2017-Jun-16 03:00N 54°11' E 012°06'1811.0
2017-Jun-16 01:21N 54°25' E 011°45'411.9
2017-Jun-16 01:00N 54°26' E 011°39'713.1
2017-Jun-16 00:30N 54°29' E 011°29'918.8
2017-Jun-16 00:00N 54°33' E 011°15'918.3
2017-Jun-15 23:30N 54°35' E 010°59'918.8
2017-Jun-15 23:00N 54°41' E 010°47'917.9
2017-Jun-15 22:30N 54°50' E 010°50'816.9
2017-Jun-15 22:00N 54°58' E 010°56'917.1
2017-Jun-15 21:30N 55°06' E 010°59'815.6
2017-Jun-15 21:00N 55°13' E 011°06'815.1
2017-Jun-15 20:30N 55°20' E 011°02'4514.0
2017-Jun-15 17:18N 56°03' E 010°41'1614.9
2017-Jun-15 16:13N 56°10' E 010°14'1 0.1
2017-Jun-15 06:24N 56°09' E 010°13'1 1.4
2017-Jun-15 05:49N 56°10' E 010°14'1 1.8
2017-Jun-15 05:31N 56°09' E 010°15'510.1
2017-Jun-15 05:01N 56°07' E 010°23'1018.9
2017-Jun-15 04:30N 56°03' E 010°39'1516.8
2017-Jun-15 03:36N 56°12' E 011°00'3018.9
2017-Jun-15 01:59N 56°36' E 011°34'1220.1
2017-Jun-15 01:23N 56°45' E 011°50'1020.7
2017-Jun-15 00:54N 56°54' E 011°45'920.7
2017-Jun-15 00:26N 57°03' E 011°39'920.9
2017-Jun-15 00:00N 57°12' E 011°35'1121.2
2017-Jun-14 23:30N 57°22' E 011°28'1121.7
2017-Jun-14 23:00N 57°31' E 011°19'1122.0
2017-Jun-14 22:30N 57°40' E 011°07'1121.7
2017-Jun-14 22:00N 57°47' E 010°51'1121.5
2017-Jun-14 21:30N 57°51' E 010°32'1121.7
2017-Jun-14 21:00N 57°51' E 010°11'1121.7
2017-Jun-14 20:30N 57°51' E 009°51'1121.8
2017-Jun-14 20:00N 57°51' E 009°31'1121.9
2017-Jun-14 19:30N 57°52' E 009°10'1121.9
2017-Jun-14 19:00N 57°53' E 008°49'1121.5
2017-Jun-14 18:30N 57°57' E 008°31'1020.7
2017-Jun-14 18:00N 58°01' E 008°13'714.3
2017-Jun-14 17:30N 58°06' E 008°03'3 5.6
2017-Jun-14 16:59N 58°08' E 007°59'0 0.2
2017-Jun-14 16:29N 58°08' E 007°60'0 0.0
2017-Jun-14 15:59N 58°08' E 007°60'0 0.0
2017-Jun-14 15:29N 58°08' E 007°60'0 0.0
2017-Jun-14 14:59N 58°08' E 007°60'0 0.0
2017-Jun-14 13:58N 58°08' E 007°60'0 0.0
2017-Jun-14 13:28N 58°08' E 007°60'0 0.0
2017-Jun-14 12:55N 58°08' E 007°60'0 0.0
2017-Jun-14 12:28N 58°08' E 007°60'0 0.0
2017-Jun-14 11:58N 58°08' E 007°60'0 0.0
2017-Jun-14 11:25N 58°08' E 007°60'0 0.0
2017-Jun-14 10:58N 58°08' E 007°60'0 0.1
2017-Jun-14 10:30N 58°08' E 007°60'2 4.8
2017-Jun-14 10:00N 58°06' E 008°03'611.4
2017-Jun-14 09:31N 58°02' E 008°07'815.9
2017-Jun-14 09:01N 57°54' E 008°11'816.4
2017-Jun-14 08:31N 57°46' E 008°06'1015.5
2017-Jun-14 07:54N 57°42' E 007°50'717.2
2017-Jun-14 07:30N 57°42' E 007°37'918.5
2017-Jun-14 07:00N 57°43' E 007°19'918.8
2017-Jun-14 06:30N 57°43' E 007°02'918.1
2017-Jun-14 06:00N 57°43' E 006°45'917.3
2017-Jun-14 05:30N 57°45' E 006°29'1018.2
2017-Jun-14 04:57N 57°53' E 006°16'918.6
2017-Jun-14 04:27N 57°59' E 006°04'818.9
2017-Jun-14 04:00N 58°05' E 005°52'1018.8
2017-Jun-14 03:30N 58°10' E 005°37'918.9
2017-Jun-14 03:00N 58°15' E 005°23'918.4
2017-Jun-14 02:30N 58°22' E 005°11'918.8
2017-Jun-14 02:01N 58°31' E 005°04'1019.2
2017-Jun-14 01:31N 58°40' E 004°57'1019.1
2017-Jun-14 01:01N 58°48' E 004°50'1019.4
2017-Jun-14 00:31N 58°57' E 004°42'1019.1
2017-Jun-14 00:00N 59°06' E 004°34'918.5
2017-Jun-13 23:30N 59°14' E 004°25'5417.8
2017-Jun-13 20:28N 60°08' E 004°30'  
Track history (hours):
 
Tides and Currents Weather Stations Pressure Air Temp Water Temp Dewpoint Dewpoint Depression Visibility Wind Speed Wind Dir Waves Ship Positions

Costa Favolosa

Last reported at 2017-Jun-23 20:31 UTC. Time now 2017-Jun-23 20:28 UTC.
Position N 54°52' E 010°53'.

Length 291 m; draft 8.3 m.

Type: Ship. MMSI: 247311100.

Date/timePositionNaut miles runAvg speedWind from/ knotsBaromVisibWave heightAir tempDewpointWater temp
2017-Jun-23 20:31N 54°52' E 010°53'918.8
2017-Jun-23 20:01N 54°42' E 010°54'1019.1
2017-Jun-23 19:31N 54°38' E 011°08'1019.7
2017-Jun-23 19:00N 54°33' E 011°24'1019.0
2017-Jun-23 18:30N 54°29' E 011°38'1818.6
2017-Jun-23 17:33N 54°18' E 012°02'613.2
2017-Jun-23 17:08N 54°13' E 012°05'111.7
2017-Jun-23 17:00N 54°11' E 012°05'2 0.1
2017-Jun-23 04:46N 54°10' E 012°06'1 4.8
2017-Jun-23 04:30N 54°11' E 012°06'1910.2
2017-Jun-23 02:38N 54°25' E 011°44'213.3
2017-Jun-23 02:29N 54°26' E 011°41'613.2
2017-Jun-23 02:00N 54°29' E 011°31'612.4
2017-Jun-23 01:30N 54°32' E 011°22'612.2
2017-Jun-23 01:00N 54°34' E 011°12'612.2
2017-Jun-23 00:30N 54°35' E 011°02'612.2
2017-Jun-23 00:00N 54°38' E 010°52'612.0
2017-Jun-22 23:30N 54°43' E 010°47'816.5
2017-Jun-22 23:00N 54°51' E 010°50'815.4
2017-Jun-22 22:30N 54°58' E 010°56'714.4
2017-Jun-22 22:00N 55°05' E 010°59'714.6
2017-Jun-22 21:30N 55°11' E 011°04'713.9
2017-Jun-22 20:59N 55°18' E 011°02'5712.5
2017-Jun-22 16:26N 56°09' E 010°16'2 0.7
2017-Jun-22 14:00N 56°09' E 010°13'0 0.0
2017-Jun-22 13:22N 56°09' E 010°13'0 0.0
2017-Jun-22 12:21N 56°09' E 010°13'0 0.0
2017-Jun-22 11:54N 56°09' E 010°13'0 0.0
2017-Jun-22 10:20N 56°09' E 010°13'0 0.0
2017-Jun-22 09:53N 56°09' E 010°13'0 0.0
2017-Jun-22 09:30N 56°09' E 010°13'0 0.0
2017-Jun-22 08:59N 56°09' E 010°13'0 0.0
2017-Jun-22 06:16N 56°09' E 010°13'1 1.5
2017-Jun-22 05:46N 56°10' E 010°14'1 3.0
2017-Jun-22 05:30N 56°09' E 010°15'4 8.7
2017-Jun-22 05:00N 56°07' E 010°22'1219.7
2017-Jun-22 04:22N 56°03' E 010°43'819.1
2017-Jun-22 03:57N 56°05' E 010°57'919.6
2017-Jun-22 03:30N 56°14' E 010°60'3219.0
2017-Jun-22 01:51N 56°38' E 011°36'1119.0
2017-Jun-22 01:15N 56°46' E 011°51'620.4
2017-Jun-22 00:58N 56°51' E 011°47'1020.5
2017-Jun-22 00:30N 57°00' E 011°41'1120.8
2017-Jun-22 00:00N 57°10' E 011°35'1020.7
2017-Jun-21 23:30N 57°19' E 011°28'1020.7
2017-Jun-21 23:00N 57°29' E 011°21'1020.7
2017-Jun-21 22:30N 57°36' E 011°07'1020.4
2017-Jun-21 22:00N 57°44' E 010°55'1121.0
2017-Jun-21 21:30N 57°49' E 010°37'1121.4
2017-Jun-21 21:00N 57°51' E 010°18'1121.7
2017-Jun-21 20:30N 57°52' E 009°58'1121.8
2017-Jun-21 20:01N 57°52' E 009°37'1121.9
2017-Jun-21 19:30N 57°52' E 009°17'1121.8
2017-Jun-21 19:00N 57°53' E 008°56'1121.6
2017-Jun-21 18:30N 57°56' E 008°37'1121.2
2017-Jun-21 18:00N 58°00' E 008°18'917.0
2017-Jun-21 17:30N 58°04' E 008°05'5 8.8
2017-Jun-21 16:58N 58°08' E 007°59'0 0.4
2017-Jun-21 16:28N 58°08' E 007°60'0 0.0
2017-Jun-21 15:58N 58°08' E 007°60'0 0.0
2017-Jun-21 15:28N 58°08' E 007°60'0 0.0
2017-Jun-21 14:58N 58°08' E 007°60'0 0.0
2017-Jun-21 14:28N 58°08' E 007°60'0 0.0
2017-Jun-21 11:39N 58°08' E 007°60'0 0.0
2017-Jun-21 11:00N 58°08' E 007°60'5 3.7
2017-Jun-21 09:45N 58°04' E 008°05'2 9.5
2017-Jun-21 09:30N 58°03' E 008°08'815.9
2017-Jun-21 09:01N 57°55' E 008°10'2915.9
2017-Jun-21 07:12N 57°42' E 007°22'620.2
2017-Jun-21 06:53N 57°43' E 007°10'820.2
2017-Jun-21 06:30N 57°43' E 006°56'1020.7
2017-Jun-21 06:01N 57°44' E 006°37'1020.2
2017-Jun-21 05:29N 57°50' E 006°20'918.0
2017-Jun-21 05:00N 57°55' E 006°07'918.4
2017-Jun-21 04:30N 58°00' E 005°53'1118.2
2017-Jun-21 03:53N 58°08' E 005°38'718.2
2017-Jun-21 03:29N 58°13' E 005°27'918.2
2017-Jun-21 03:00N 58°19' E 005°15'918.6
2017-Jun-21 02:30N 58°27' E 005°07'918.6
2017-Jun-21 02:01N 58°35' E 004°59'918.8
2017-Jun-21 01:31N 58°44' E 004°52'918.6
2017-Jun-21 01:00N 58°53' E 004°44'918.9
2017-Jun-21 00:30N 59°01' E 004°37'6718.2
2017-Jun-20 20:49N 60°08' E 004°30'618.3
2017-Jun-20 20:30N 60°14' E 004°31'918.2
2017-Jun-20 20:00N 60°23' E 004°32'918.2
2017-Jun-20 19:30N 60°32' E 004°31'917.6
2017-Jun-20 18:59N 60°41' E 004°31'714.9
2017-Jun-20 18:30N 60°44' E 004°44'713.8
2017-Jun-20 18:00N 60°39' E 004°53'918.3
2017-Jun-20 17:29N 60°30' E 004°59'714.2
2017-Jun-20 17:00N 60°24' E 005°07'5 9.0
2017-Jun-20 16:30N 60°24' E 005°16'1 2.9
2017-Jun-20 15:59N 60°24' E 005°19'0 0.0
2017-Jun-20 15:29N 60°24' E 005°19'0 0.0
2017-Jun-20 14:56N 60°24' E 005°19'0 0.0
2017-Jun-20 13:56N 60°24' E 005°19'0 0.0
2017-Jun-20 13:29N 60°24' E 005°19'0 0.0
2017-Jun-20 12:58N 60°24' E 005°19'0 0.0
2017-Jun-20 12:28N 60°24' E 005°19'0 0.0
2017-Jun-20 12:00N 60°24' E 005°19'0 0.0
2017-Jun-20 11:30N 60°24' E 005°19'0 0.0
2017-Jun-20 11:00N 60°24' E 005°19'0 0.0
2017-Jun-20 10:30N 60°24' E 005°19'0 0.0
2017-Jun-20 10:00N 60°24' E 005°19'0 0.0
2017-Jun-20 09:30N 60°24' E 005°19'0 0.0
2017-Jun-20 09:00N 60°24' E 005°19'0 0.0
2017-Jun-20 08:30N 60°24' E 005°19'0 0.0
2017-Jun-20 08:00N 60°24' E 005°19'0 0.0
2017-Jun-20 07:30N 60°24' E 005°19'0 0.0
2017-Jun-20 06:54N 60°24' E 005°19'0 0.0
2017-Jun-20 06:30N 60°24' E 005°19'0 0.0
2017-Jun-20 06:00N 60°24' E 005°19'0 0.0
2017-Jun-20 05:30N 60°24' E 005°19'2 4.2
2017-Jun-20 05:00N 60°24' E 005°15'5 9.7
2017-Jun-20 04:30N 60°25' E 005°05'815.7
2017-Jun-20 04:00N 60°31' E 004°57'917.4
2017-Jun-20 03:30N 60°40' E 004°51'713.9
2017-Jun-20 03:00N 60°44' E 004°41'816.4
2017-Jun-20 02:30N 60°49' E 004°27'1019.3
2017-Jun-20 02:00N 60°58' E 004°20'1019.3
2017-Jun-20 01:30N 61°08' E 004°17'1019.6
2017-Jun-20 01:00N 61°17' E 004°18'3519.9
2017-Jun-19 23:14N 61°52' E 004°32'520.0
2017-Jun-19 22:59N 61°56' E 004°37'1019.6
2017-Jun-19 22:29N 62°05' E 004°46'1019.9
2017-Jun-19 21:58N 62°15' E 004°56'919.3
2017-Jun-19 21:30N 62°21' E 005°09'1019.3
2017-Jun-19 21:00N 62°28' E 005°23'1018.6
2017-Jun-19 20:29N 62°30' E 005°43'817.2
2017-Jun-19 20:00N 62°27' E 005°59'813.7
2017-Jun-19 19:26N 62°23' E 006°14'818.5
2017-Jun-19 19:00N 62°25' E 006°31'1117.3
2017-Jun-19 18:22N 62°26' E 006°54'717.9
2017-Jun-19 18:00N 62°19' E 006°58'917.4
2017-Jun-19 17:30N 62°11' E 007°02'510.3
2017-Jun-19 17:00N 62°06' E 007°01'5 9.6
2017-Jun-19 16:30N 62°06' E 007°11'0 0.6
2017-Jun-19 15:58N 62°06' E 007°12'0 0.0
2017-Jun-19 15:30N 62°06' E 007°12'0 0.0
2017-Jun-19 15:00N 62°06' E 007°12'0 0.0
2017-Jun-19 14:00N 62°06' E 007°12'0 0.0
2017-Jun-19 13:28N 62°06' E 007°12'0 0.0
2017-Jun-19 12:58N 62°06' E 007°12'0 0.0
2017-Jun-19 12:28N 62°06' E 007°12'0 0.0
2017-Jun-19 11:58N 62°06' E 007°12'0 0.0
2017-Jun-19 11:28N 62°06' E 007°12'0 0.0
2017-Jun-19 10:58N 62°06' E 007°12'0 0.0
2017-Jun-19 10:28N 62°06' E 007°12'0 0.0
2017-Jun-19 09:58N 62°06' E 007°12'0 0.0
2017-Jun-19 09:28N 62°06' E 007°12'0 0.0
2017-Jun-19 09:00N 62°06' E 007°12'0 0.0
2017-Jun-19 08:30N 62°06' E 007°12'1 1.1
2017-Jun-19 08:00N 62°07' E 007°11'510.1
2017-Jun-19 07:30N 62°06' E 007°00'4 1.6
2017-Jun-19 05:09N 62°05' E 006°53'0 1.1
2017-Jun-19 04:56N 62°05' E 006°53'4 8.1
2017-Jun-19 04:30N 62°08' E 006°58'713.7
2017-Jun-19 04:00N 62°15' E 007°01'714.0
2017-Jun-19 03:30N 62°21' E 006°56'713.6
2017-Jun-19 02:58N 62°27' E 006°47'815.9
2017-Jun-19 02:30N 62°25' E 006°31'816.9
2017-Jun-19 02:00N 62°23' E 006°14'713.9
2017-Jun-19 01:30N 62°26' E 006°00'613.0
2017-Jun-19 01:00N 62°29' E 005°48'815.1
2017-Jun-19 00:30N 62°30' E 005°31'919.1
2017-Jun-19 00:00N 62°23' E 005°17'1019.2
2017-Jun-18 23:30N 62°18' E 004°60'1019.1
2017-Jun-18 23:00N 62°11' E 004°44'20417.8
2017-Jun-18 11:34N 58°48' E 004°35'619.4
2017-Jun-18 11:16N 58°44' E 004°43'519.3
2017-Jun-18 11:00N 58°40' E 004°50'1019.3
2017-Jun-18 10:30N 58°33' E 005°02'1019.0
2017-Jun-18 10:00N 58°26' E 005°15'918.8
2017-Jun-18 09:29N 58°19' E 005°27'918.9
2017-Jun-18 09:00N 58°13' E 005°41'1019.0
2017-Jun-18 08:30N 58°07' E 005°55'918.9
2017-Jun-18 08:00N 58°01' E 006°08'1019.1
2017-Jun-18 07:30N 57°54' E 006°22'919.1
2017-Jun-18 07:00N 57°48' E 006°36'1019.3
2017-Jun-18 06:29N 57°48' E 006°54'919.5
2017-Jun-18 06:00N 57°47' E 007°12'1019.9
2017-Jun-18 05:30N 57°47' E 007°30'1120.9
2017-Jun-18 05:00N 57°46' E 007°50'1020.3
2017-Jun-18 04:30N 57°47' E 008°09'1020.1
2017-Jun-18 04:00N 57°48' E 008°28'1020.0
2017-Jun-18 03:30N 57°49' E 008°46'1120.0
2017-Jun-18 02:59N 57°48' E 009°06'1019.9
2017-Jun-18 02:29N 57°50' E 009°25'920.0
2017-Jun-18 02:00N 57°50' E 009°43'1019.9
2017-Jun-18 01:30N 57°52' E 010°01'1019.6
2017-Jun-18 01:00N 57°51' E 010°20'918.4
2017-Jun-18 00:30N 57°50' E 010°37'816.7
2017-Jun-18 00:00N 57°47' E 010°51'917.4
2017-Jun-17 23:30N 57°42' E 011°04'917.6
2017-Jun-17 23:00N 57°35' E 011°16'918.2
2017-Jun-17 22:30N 57°29' E 011°27'918.3
2017-Jun-17 22:00N 57°20' E 011°32'918.4
2017-Jun-17 21:29N 57°11' E 011°38'918.7
2017-Jun-17 20:59N 57°02' E 011°43'918.2
2017-Jun-17 20:29N 56°54' E 011°49'917.9
2017-Jun-17 20:00N 56°46' E 011°55'917.8
2017-Jun-17 19:29N 56°37' E 011°58'917.9
2017-Jun-17 19:00N 56°28' E 012°01'917.8
2017-Jun-17 18:30N 56°20' E 012°06'917.1
2017-Jun-17 18:00N 56°13' E 012°16'918.0
2017-Jun-17 17:30N 56°08' E 012°29'816.3
2017-Jun-17 17:00N 56°02' E 012°40'816.8
2017-Jun-17 16:30N 55°54' E 012°44'816.6
2017-Jun-17 16:00N 55°46' E 012°42'4 8.2
2017-Jun-17 15:29N 55°43' E 012°38'0 0.0
2017-Jun-17 14:59N 55°43' E 012°38'0 0.0
2017-Jun-17 14:29N 55°43' E 012°38'0 0.0
2017-Jun-17 13:28N 55°43' E 012°38'0 0.0
2017-Jun-17 12:58N 55°43' E 012°38'0 0.0
2017-Jun-17 12:28N 55°43' E 012°38'0 0.0
2017-Jun-17 11:58N 55°43' E 012°38'0 0.0
2017-Jun-17 11:28N 55°43' E 012°38'0 0.0
2017-Jun-17 10:58N 55°43' E 012°38'0 0.0
2017-Jun-17 10:28N 55°43' E 012°38'0 0.0
2017-Jun-17 10:00N 55°43' E 012°38'0 0.0
2017-Jun-17 09:30N 55°43' E 012°38'0 0.0
2017-Jun-17 09:00N 55°43' E 012°38'0 0.0
2017-Jun-17 08:28N 55°43' E 012°38'0 0.0
2017-Jun-17 08:00N 55°43' E 012°38'0 0.0
2017-Jun-17 07:31N 55°43' E 012°38'0 0.0
2017-Jun-17 07:01N 55°43' E 012°38'0 0.0
2017-Jun-17 06:31N 55°43' E 012°38'0 0.3
2017-Jun-17 06:01N 55°43' E 012°38'4 7.2
2017-Jun-17 05:31N 55°46' E 012°41'815.7
2017-Jun-17 05:00N 55°53' E 012°39'917.9
2017-Jun-17 04:30N 56°02' E 012°39'918.9
2017-Jun-17 04:00N 56°09' E 012°27'1020.6
2017-Jun-17 03:30N 56°12' E 012°09'1020.9
2017-Jun-17 03:00N 56°09' E 011°51'5814.6
2017-Jun-16 23:03N 55°18' E 011°03'119.0
2017-Jun-16 23:00N 55°17' E 011°04'916.1
2017-Jun-16 22:25N 55°08' E 010°59'819.3
2017-Jun-16 22:00N 55°00' E 010°59'918.8
2017-Jun-16 21:30N 54°52' E 010°50'918.2
2017-Jun-16 21:00N 54°44' E 010°46'816.5
2017-Jun-16 20:30N 54°37' E 010°56'917.9
2017-Jun-16 20:00N 54°36' E 011°11'918.4
2017-Jun-16 19:30N 54°32' E 011°25'1018.2
2017-Jun-16 18:59N 54°28' E 011°40'917.6
2017-Jun-16 18:28N 54°22' E 011°53'14 1.0
2017-Jun-16 03:30N 54°10' E 012°06'0 0.7
2017-Jun-16 03:00N 54°11' E 012°06'1811.0
2017-Jun-16 01:21N 54°25' E 011°45'411.9
2017-Jun-16 01:00N 54°26' E 011°39'713.1
2017-Jun-16 00:30N 54°29' E 011°29'918.8
2017-Jun-16 00:00N 54°33' E 011°15'918.3
2017-Jun-15 23:30N 54°35' E 010°59'918.8
2017-Jun-15 23:00N 54°41' E 010°47'917.9
2017-Jun-15 22:30N 54°50' E 010°50'816.9
2017-Jun-15 22:00N 54°58' E 010°56'917.1
2017-Jun-15 21:30N 55°06' E 010°59'815.6
2017-Jun-15 21:00N 55°13' E 011°06'815.1
2017-Jun-15 20:30N 55°20' E 011°02'4514.0
2017-Jun-15 17:18N 56°03' E 010°41'1614.9
2017-Jun-15 16:13N 56°10' E 010°14'1 0.1
2017-Jun-15 06:24N 56°09' E 010°13'1 1.4
2017-Jun-15 05:49N 56°10' E 010°14'1 1.8
2017-Jun-15 05:31N 56°09' E 010°15'510.1
2017-Jun-15 05:01N 56°07' E 010°23'1018.9
2017-Jun-15 04:30N 56°03' E 010°39'1516.8
2017-Jun-15 03:36N 56°12' E 011°00'3018.9
2017-Jun-15 01:59N 56°36' E 011°34'1220.1
2017-Jun-15 01:23N 56°45' E 011°50'1020.7
2017-Jun-15 00:54N 56°54' E 011°45'920.7
2017-Jun-15 00:26N 57°03' E 011°39'920.9
2017-Jun-15 00:00N 57°12' E 011°35'1121.2
2017-Jun-14 23:30N 57°22' E 011°28'1121.7
2017-Jun-14 23:00N 57°31' E 011°19'1122.0
2017-Jun-14 22:30N 57°40' E 011°07'1121.7
2017-Jun-14 22:00N 57°47' E 010°51'1121.5
2017-Jun-14 21:30N 57°51' E 010°32'1121.7
2017-Jun-14 21:00N 57°51' E 010°11'1121.7
2017-Jun-14 20:30N 57°51' E 009°51'1121.8
2017-Jun-14 20:00N 57°51' E 009°31'1121.9
2017-Jun-14 19:30N 57°52' E 009°10'1121.9
2017-Jun-14 19:00N 57°53' E 008°49'1121.5
2017-Jun-14 18:30N 57°57' E 008°31'1020.7
2017-Jun-14 18:00N 58°01' E 008°13'714.3
2017-Jun-14 17:30N 58°06' E 008°03'3 5.6
2017-Jun-14 16:59N 58°08' E 007°59'0 0.2
2017-Jun-14 16:29N 58°08' E 007°60'0 0.0
2017-Jun-14 15:59N 58°08' E 007°60'0 0.0
2017-Jun-14 15:29N 58°08' E 007°60'0 0.0
2017-Jun-14 14:59N 58°08' E 007°60'0 0.0
2017-Jun-14 13:58N 58°08' E 007°60'0 0.0
2017-Jun-14 13:28N 58°08' E 007°60'0 0.0
2017-Jun-14 12:55N 58°08' E 007°60'0 0.0
2017-Jun-14 12:28N 58°08' E 007°60'0 0.0
2017-Jun-14 11:58N 58°08' E 007°60'0 0.0
2017-Jun-14 11:25N 58°08' E 007°60'0 0.0
2017-Jun-14 10:58N 58°08' E 007°60'0 0.1
2017-Jun-14 10:30N 58°08' E 007°60'2 4.8
2017-Jun-14 10:00N 58°06' E 008°03'611.4
2017-Jun-14 09:31N 58°02' E 008°07'815.9
2017-Jun-14 09:01N 57°54' E 008°11'816.4
2017-Jun-14 08:31N 57°46' E 008°06'1015.5
2017-Jun-14 07:54N 57°42' E 007°50'717.2
2017-Jun-14 07:30N 57°42' E 007°37'918.5
2017-Jun-14 07:00N 57°43' E 007°19'918.8
2017-Jun-14 06:30N 57°43' E 007°02'918.1
2017-Jun-14 06:00N 57°43' E 006°45'917.3
2017-Jun-14 05:30N 57°45' E 006°29'1018.2
2017-Jun-14 04:57N 57°53' E 006°16'918.6
2017-Jun-14 04:27N 57°59' E 006°04'818.9
2017-Jun-14 04:00N 58°05' E 005°52'1018.8
2017-Jun-14 03:30N 58°10' E 005°37'918.9
2017-Jun-14 03:00N 58°15' E 005°23'918.4
2017-Jun-14 02:30N 58°22' E 005°11'918.8
2017-Jun-14 02:01N 58°31' E 005°04'1019.2
2017-Jun-14 01:31N 58°40' E 004°57'1019.1
2017-Jun-14 01:01N 58°48' E 004°50'1019.4
2017-Jun-14 00:31N 58°57' E 004°42'1019.1
2017-Jun-14 00:00N 59°06' E 004°34'918.5
2017-Jun-13 23:30N 59°14' E 004°25'5417.8
2017-Jun-13 20:28N 60°08' E 004°30'  

Dump ship's entire track history